sensor_id;sensor_type;location;lat;lon;timestamp;pressure;altitude;pressure_sealevel;temperature;humidity
15263;BME280;7733;51.554;13.590;2023-04-27T00:00:07;100771.75;;;8.07;61.25
15263;BME280;7733;51.554;13.590;2023-04-27T00:02:36;100765.63;;;7.99;61.39
15263;BME280;7733;51.554;13.590;2023-04-27T00:05:03;100770.00;;;8.02;61.33
15263;BME280;7733;51.554;13.590;2023-04-27T00:07:30;100767.34;;;7.86;62.08
15263;BME280;7733;51.554;13.590;2023-04-27T00:09:56;100767.34;;;7.97;61.33
15263;BME280;7733;51.554;13.590;2023-04-27T00:12:22;100763.91;;;8.03;61.12
15263;BME280;7733;51.554;13.590;2023-04-27T00:14:48;100765.59;;;7.90;61.86
15263;BME280;7733;51.554;13.590;2023-04-27T00:17:14;100759.44;;;7.76;62.67
15263;BME280;7733;51.554;13.590;2023-04-27T00:19:40;100768.03;;;7.46;64.62
15263;BME280;7733;51.554;13.590;2023-04-27T00:22:09;100762.75;;;7.37;65.65
15263;BME280;7733;51.554;13.590;2023-04-27T00:24:35;100764.59;;;7.57;63.71
15263;BME280;7733;51.554;13.590;2023-04-27T00:27:01;100754.13;;;7.50;63.82
15263;BME280;7733;51.554;13.590;2023-04-27T00:29:27;100766.34;;;7.60;63.66
15263;BME280;7733;51.554;13.590;2023-04-27T00:31:53;100762.91;;;7.67;63.04
15263;BME280;7733;51.554;13.590;2023-04-27T00:34:19;100767.19;;;7.51;63.62
15263;BME280;7733;51.554;13.590;2023-04-27T00:36:45;100772.44;;;7.60;62.74
15263;BME280;7733;51.554;13.590;2023-04-27T00:39:10;100769.88;;;7.62;61.63
15263;BME280;7733;51.554;13.590;2023-04-27T00:41:37;100768.06;;;7.56;61.13
15263;BME280;7733;51.554;13.590;2023-04-27T00:44:06;100766.31;;;7.54;60.93
15263;BME280;7733;51.554;13.590;2023-04-27T00:46:33;100762.88;;;7.59;61.10
15263;BME280;7733;51.554;13.590;2023-04-27T00:49:00;100760.25;;;7.59;60.79
15263;BME280;7733;51.554;13.590;2023-04-27T00:51:26;100775.91;;;7.56;60.61
15263;BME280;7733;51.554;13.590;2023-04-27T00:53:58;100776.69;;;7.40;62.17
15263;BME280;7733;51.554;13.590;2023-04-27T00:56:25;100767.00;;;7.18;63.41
15263;BME280;7733;51.554;13.590;2023-04-27T00:58:51;100771.31;;;7.08;63.95
15263;BME280;7733;51.554;13.590;2023-04-27T01:01:16;100775.66;;;7.06;63.93
15263;BME280;7733;51.554;13.590;2023-04-27T01:03:46;100766.13;;;7.16;62.29
15263;BME280;7733;51.554;13.590;2023-04-27T01:06:11;100779.13;;;7.04;62.43
15263;BME280;7733;51.554;13.590;2023-04-27T01:08:37;100775.56;;;6.95;63.53
15263;BME280;7733;51.554;13.590;2023-04-27T01:11:03;100775.63;;;7.01;63.17
15263;BME280;7733;51.554;13.590;2023-04-27T01:13:29;100781.75;;;7.08;62.98
15263;BME280;7733;51.554;13.590;2023-04-27T01:15:54;100780.75;;;6.92;62.39
15263;BME280;7733;51.554;13.590;2023-04-27T01:18:20;100778.16;;;6.91;62.39
15263;BME280;7733;51.554;13.590;2023-04-27T01:20:46;100789.25;;;6.67;62.63
15263;BME280;7733;51.554;13.590;2023-04-27T01:23:13;100778.84;;;6.70;62.58
15263;BME280;7733;51.554;13.590;2023-04-27T01:25:40;100785.00;;;6.80;62.45
15263;BME280;7733;51.554;13.590;2023-04-27T01:28:06;100784.91;;;6.67;62.41
15263;BME280;7733;51.554;13.590;2023-04-27T01:30:31;100784.84;;;6.60;62.74
15263;BME280;7733;51.554;13.590;2023-04-27T01:32:57;100792.78;;;6.75;62.65
15263;BME280;7733;51.554;13.590;2023-04-27T01:35:23;100787.53;;;6.69;63.69
15263;BME280;7733;51.554;13.590;2023-04-27T01:37:49;100791.66;;;6.44;66.76
15263;BME280;7733;51.554;13.590;2023-04-27T01:40:16;100796.00;;;6.42;65.93
15263;BME280;7733;51.554;13.590;2023-04-27T01:42:41;100793.28;;;6.33;66.65
15263;BME280;7733;51.554;13.590;2023-04-27T01:45:08;100803.38;;;6.01;67.07
15263;BME280;7733;51.554;13.590;2023-04-27T01:47:34;100799.06;;;6.03;68.80
15263;BME280;7733;51.554;13.590;2023-04-27T01:50:00;100810.09;;;5.84;68.58
15263;BME280;7733;51.554;13.590;2023-04-27T01:52:26;100802.81;;;6.31;66.07
15263;BME280;7733;51.554;13.590;2023-04-27T01:54:52;100806.31;;;6.34;65.55
15263;BME280;7733;51.554;13.590;2023-04-27T01:57:18;100811.53;;;6.36;64.96
15263;BME280;7733;51.554;13.590;2023-04-27T01:59:44;100810.78;;;6.46;64.81
15263;BME280;7733;51.554;13.590;2023-04-27T02:02:09;100806.38;;;6.40;65.22
15263;BME280;7733;51.554;13.590;2023-04-27T02:04:35;100813.19;;;6.23;65.57
15263;BME280;7733;51.554;13.590;2023-04-27T02:07:01;100817.41;;;6.15;66.26
15263;BME280;7733;51.554;13.590;2023-04-27T02:09:27;100813.13;;;6.20;66.24
15263;BME280;7733;51.554;13.590;2023-04-27T02:11:53;100814.13;;;6.34;66.25
15263;BME280;7733;51.554;13.590;2023-04-27T02:14:19;100808.91;;;6.33;66.49
15263;BME280;7733;51.554;13.590;2023-04-27T02:16:45;100816.78;;;6.40;66.00
15263;BME280;7733;51.554;13.590;2023-04-27T02:19:10;100813.31;;;6.38;65.18
15263;BME280;7733;51.554;13.590;2023-04-27T02:21:38;100811.50;;;6.31;65.59
15263;BME280;7733;51.554;13.590;2023-04-27T02:24:04;100815.94;;;6.40;64.91
15263;BME280;7733;51.554;13.590;2023-04-27T02:26:30;100815.88;;;6.34;65.54
15263;BME280;7733;51.554;13.590;2023-04-27T02:28:57;100811.72;;;6.53;64.63
15263;BME280;7733;51.554;13.590;2023-04-27T02:31:23;100822.97;;;6.49;64.70
15263;BME280;7733;51.554;13.590;2023-04-27T02:33:48;100818.63;;;6.49;64.83
15263;BME280;7733;51.554;13.590;2023-04-27T02:36:14;100824.66;;;6.42;66.36
15263;BME280;7733;51.554;13.590;2023-04-27T02:38:40;100818.50;;;6.38;66.80
15263;BME280;7733;51.554;13.590;2023-04-27T02:41:06;100824.53;;;6.31;67.10
15263;BME280;7733;51.554;13.590;2023-04-27T02:43:31;100822.72;;;6.23;66.61
15263;BME280;7733;51.554;13.590;2023-04-27T02:46:02;100827.97;;;6.27;66.19
15263;BME280;7733;51.554;13.590;2023-04-27T02:48:29;100827.16;;;6.33;65.86
15263;BME280;7733;51.554;13.590;2023-04-27T02:50:55;100823.66;;;6.31;66.54
15263;BME280;7733;51.554;13.590;2023-04-27T02:53:22;100821.88;;;6.25;66.30
15263;BME280;7733;51.554;13.590;2023-04-27T02:55:48;100816.72;;;6.33;66.37
15263;BME280;7733;51.554;13.590;2023-04-27T02:58:15;100815.19;;;6.52;65.73
15263;BME280;7733;51.554;13.590;2023-04-27T03:00:42;100823.03;;;6.55;65.29
15263;BME280;7733;51.554;13.590;2023-04-27T03:03:08;100826.50;;;6.57;65.31
15263;BME280;7733;51.554;13.590;2023-04-27T03:05:37;100823.84;;;6.49;66.45
15263;BME280;7733;51.554;13.590;2023-04-27T03:08:03;100831.53;;;6.35;67.95
15263;BME280;7733;51.554;13.590;2023-04-27T03:10:29;100830.78;;;6.49;67.47
15263;BME280;7733;51.554;13.590;2023-04-27T03:12:54;100829.03;;;6.46;67.83
15263;BME280;7733;51.554;13.590;2023-04-27T03:15:20;100831.72;;;6.57;66.45
15263;BME280;7733;51.554;13.590;2023-04-27T03:17:47;100832.50;;;6.47;66.45
15263;BME280;7733;51.554;13.590;2023-04-27T03:20:12;100840.84;;;6.15;68.06
15263;BME280;7733;51.554;13.590;2023-04-27T03:22:38;100842.75;;;6.28;67.67
15263;BME280;7733;51.554;13.590;2023-04-27T03:25:04;100834.88;;;6.24;66.93
15263;BME280;7733;51.554;13.590;2023-04-27T03:27:31;100842.50;;;6.07;67.80
15263;BME280;7733;51.554;13.590;2023-04-27T03:29:57;100849.53;;;6.14;67.11
15263;BME280;7733;51.554;13.590;2023-04-27T03:32:22;100851.91;;;5.96;68.06
15263;BME280;7733;51.554;13.590;2023-04-27T03:34:48;100854.72;;;6.14;67.89
15263;BME280;7733;51.554;13.590;2023-04-27T03:37:14;100859.09;;;6.15;67.67
15263;BME280;7733;51.554;13.590;2023-04-27T03:39:40;100858.81;;;5.92;68.14
15263;BME280;7733;51.554;13.590;2023-04-27T03:42:06;100866.00;;;5.48;70.71
15263;BME280;7733;51.554;13.590;2023-04-27T03:44:31;100866.84;;;6.09;67.58
15263;BME280;7733;51.554;13.590;2023-04-27T03:46:58;100867.94;;;6.31;66.14
15263;BME280;7733;51.554;13.590;2023-04-27T03:49:24;100871.34;;;6.24;65.64
15263;BME280;7733;51.554;13.590;2023-04-27T03:51:50;100874.03;;;6.33;65.10
15263;BME280;7733;51.554;13.590;2023-04-27T03:54:16;100874.00;;;6.28;65.26
15263;BME280;7733;51.554;13.590;2023-04-27T03:56:41;100874.75;;;6.18;66.46
15263;BME280;7733;51.554;13.590;2023-04-27T03:59:09;100876.88;;;5.82;68.94
15263;BME280;7733;51.554;13.590;2023-04-27T04:01:35;100875.88;;;5.73;69.95
15263;BME280;7733;51.554;13.590;2023-04-27T04:04:01;100886.94;;;5.57;70.70
15263;BME280;7733;51.554;13.590;2023-04-27T04:06:27;100882.53;;;5.53;69.95
15263;BME280;7733;51.554;13.590;2023-04-27T04:08:53;100874.91;;;5.64;69.53
15263;BME280;7733;51.554;13.590;2023-04-27T04:11:19;100885.38;;;5.70;69.81
15263;BME280;7733;51.554;13.590;2023-04-27T04:13:45;100887.63;;;6.04;68.65
15263;BME280;7733;51.554;13.590;2023-04-27T04:16:12;100885.97;;;6.14;68.30
15263;BME280;7733;51.554;13.590;2023-04-27T04:18:38;100891.31;;;6.23;67.35
15263;BME280;7733;51.554;13.590;2023-04-27T04:21:04;100894.81;;;6.25;67.17
15263;BME280;7733;51.554;13.590;2023-04-27T04:23:30;100906.34;;;6.47;66.37
15263;BME280;7733;51.554;13.590;2023-04-27T04:25:57;100902.91;;;6.50;66.10
15263;BME280;7733;51.554;13.590;2023-04-27T04:28:24;100908.81;;;6.36;68.49
15263;BME280;7733;51.554;13.590;2023-04-27T04:30:50;100906.00;;;6.20;70.61
15263;BME280;7733;51.554;13.590;2023-04-27T04:33:17;100908.59;;;6.18;71.41
15263;BME280;7733;51.554;13.590;2023-04-27T04:35:43;100920.75;;;6.19;71.91
15263;BME280;7733;51.554;13.590;2023-04-27T04:38:09;100917.50;;;6.37;70.59
15263;BME280;7733;51.554;13.590;2023-04-27T04:40:38;100926.25;;;5.78;74.60
15263;BME280;7733;51.554;13.590;2023-04-27T04:43:04;100934.22;;;5.88;74.07
15263;BME280;7733;51.554;13.590;2023-04-27T04:45:30;100928.81;;;5.74;75.81
15263;BME280;7733;51.554;13.590;2023-04-27T04:47:55;100930.38;;;6.22;73.47
15263;BME280;7733;51.554;13.590;2023-04-27T04:50:22;100936.25;;;6.07;74.22
15263;BME280;7733;51.554;13.590;2023-04-27T04:52:48;100936.19;;;6.01;73.44
15263;BME280;7733;51.554;13.590;2023-04-27T04:55:14;100930.91;;;5.98;72.51
15263;BME280;7733;51.554;13.590;2023-04-27T04:57:40;100925.84;;;6.07;71.33
15263;BME280;7733;51.554;13.590;2023-04-27T05:00:06;100937.69;;;5.88;72.94
15263;BME280;7733;51.554;13.590;2023-04-27T05:02:37;100932.28;;;5.74;72.87
15263;BME280;7733;51.554;13.590;2023-04-27T05:05:04;100935.75;;;5.73;73.33
15263;BME280;7733;51.554;13.590;2023-04-27T05:07:30;100938.00;;;5.50;74.06
15263;BME280;7733;51.554;13.590;2023-04-27T05:09:55;100939.41;;;5.30;75.01
15263;BME280;7733;51.554;13.590;2023-04-27T05:12:21;100942.97;;;5.90;73.12
15263;BME280;7733;51.554;13.590;2023-04-27T05:14:47;100940.59;;;6.08;72.80
15263;BME280;7733;51.554;13.590;2023-04-27T05:17:13;100937.69;;;5.87;73.60
15263;BME280;7733;51.554;13.590;2023-04-27T05:19:39;100941.19;;;5.89;73.46
15263;BME280;7733;51.554;13.590;2023-04-27T05:22:05;100943.00;;;5.93;72.98
15263;BME280;7733;51.554;13.590;2023-04-27T05:24:32;100936.56;;;6.33;71.65
15263;BME280;7733;51.554;13.590;2023-04-27T05:26:57;100928.66;;;6.22;72.04
15263;BME280;7733;51.554;13.590;2023-04-27T05:29:23;100933.47;;;6.63;70.42
15263;BME280;7733;51.554;13.590;2023-04-27T05:31:49;100919.81;;;6.91;69.00
15263;BME280;7733;51.554;13.590;2023-04-27T05:34:15;100931.75;;;6.65;70.00
15263;BME280;7733;51.554;13.590;2023-04-27T05:36:41;100923.25;;;6.84;70.22
15263;BME280;7733;51.554;13.590;2023-04-27T05:39:07;100928.81;;;7.21;68.67
15263;BME280;7733;51.554;13.590;2023-04-27T05:41:32;100930.56;;;7.25;69.00
15263;BME280;7733;51.554;13.590;2023-04-27T05:43:58;100927.25;;;7.44;67.99
15263;BME280;7733;51.554;13.590;2023-04-27T05:46:24;100934.25;;;6.60;70.54
15263;BME280;7733;51.554;13.590;2023-04-27T05:48:50;100925.44;;;7.37;68.44
15263;BME280;7733;51.554;13.590;2023-04-27T05:51:15;100931.88;;;6.80;70.95
15263;BME280;7733;51.554;13.590;2023-04-27T05:53:42;100927.13;;;7.32;68.41
15263;BME280;7733;51.554;13.590;2023-04-27T05:56:08;100929.41;;;6.95;70.79
15263;BME280;7733;51.554;13.590;2023-04-27T05:58:36;100936.06;;;6.64;72.40
15263;BME280;7733;51.554;13.590;2023-04-27T06:01:02;100927.28;;;6.56;73.63
15263;BME280;7733;51.554;13.590;2023-04-27T06:03:30;100927.75;;;7.02;71.13
15263;BME280;7733;51.554;13.590;2023-04-27T06:05:59;100938.19;;;7.02;71.73
15263;BME280;7733;51.554;13.590;2023-04-27T06:08:26;100932.97;;;7.02;71.81
15263;BME280;7733;51.554;13.590;2023-04-27T06:10:53;100930.31;;;6.97;72.30
15263;BME280;7733;51.554;13.590;2023-04-27T06:13:19;100935.69;;;7.16;71.33
15263;BME280;7733;51.554;13.590;2023-04-27T06:15:45;100933.09;;;7.19;72.35
15263;BME280;7733;51.554;13.590;2023-04-27T06:18:11;100930.59;;;7.31;70.32
15263;BME280;7733;51.554;13.590;2023-04-27T06:20:37;100937.31;;;7.01;71.26
15263;BME280;7733;51.554;13.590;2023-04-27T06:23:03;100933.25;;;7.37;70.26
15263;BME280;7733;51.554;13.590;2023-04-27T06:25:29;100935.16;;;7.59;69.91
15263;BME280;7733;51.554;13.590;2023-04-27T06:27:56;100941.94;;;7.33;72.04
15263;BME280;7733;51.554;13.590;2023-04-27T06:30:23;100934.19;;;7.42;70.84
15263;BME280;7733;51.554;13.590;2023-04-27T06:32:50;100943.00;;;7.59;70.02
15263;BME280;7733;51.554;13.590;2023-04-27T06:35:16;100944.47;;;7.24;70.97
15263;BME280;7733;51.554;13.590;2023-04-27T06:37:43;100950.56;;;7.24;71.66
15263;BME280;7733;51.554;13.590;2023-04-27T06:40:10;100955.13;;;7.50;69.91
15263;BME280;7733;51.554;13.590;2023-04-27T06:42:36;100957.13;;;7.86;69.05
15263;BME280;7733;51.554;13.590;2023-04-27T06:45:02;100943.84;;;7.57;70.70
15263;BME280;7733;51.554;13.590;2023-04-27T06:47:29;100945.59;;;7.59;71.52
15263;BME280;7733;51.554;13.590;2023-04-27T06:49:55;100944.94;;;7.88;70.40
15263;BME280;7733;51.554;13.590;2023-04-27T06:52:20;100956.22;;;7.84;69.53
15263;BME280;7733;51.554;13.590;2023-04-27T06:54:46;100958.75;;;7.72;69.78
15263;BME280;7733;51.554;13.590;2023-04-27T06:57:12;100963.25;;;7.92;69.48
15263;BME280;7733;51.554;13.590;2023-04-27T06:59:38;100957.28;;;8.18;68.18
15263;BME280;7733;51.554;13.590;2023-04-27T07:02:05;100953.97;;;8.42;67.44
15263;BME280;7733;51.554;13.590;2023-04-27T07:04:31;100958.97;;;8.08;68.25
15263;BME280;7733;51.554;13.590;2023-04-27T07:06:57;100949.50;;;8.29;68.10
15263;BME280;7733;51.554;13.590;2023-04-27T07:09:23;100951.25;;;8.30;68.00
15263;BME280;7733;51.554;13.590;2023-04-27T07:11:48;100946.13;;;8.56;67.43
15263;BME280;7733;51.554;13.590;2023-04-27T07:14:14;100942.72;;;8.79;66.42
15263;BME280;7733;51.554;13.590;2023-04-27T07:16:40;100947.06;;;8.68;67.03
15263;BME280;7733;51.554;13.590;2023-04-27T07:19:06;100951.41;;;8.65;66.43
15263;BME280;7733;51.554;13.590;2023-04-27T07:21:32;100943.66;;;9.04;65.84
15263;BME280;7733;51.554;13.590;2023-04-27T07:23:57;100948.84;;;8.92;66.19
15263;BME280;7733;51.554;13.590;2023-04-27T07:26:23;100950.59;;;9.01;65.52
15263;BME280;7733;51.554;13.590;2023-04-27T07:28:49;100949.75;;;9.15;65.29
15263;BME280;7733;51.554;13.590;2023-04-27T07:31:15;100947.09;;;9.87;62.58
15263;BME280;7733;51.554;13.590;2023-04-27T07:33:41;100946.25;;;9.55;63.93
15263;BME280;7733;51.554;13.590;2023-04-27T07:36:07;100949.75;;;9.15;64.55
15263;BME280;7733;51.554;13.590;2023-04-27T07:38:33;100963.72;;;9.82;63.91
15263;BME280;7733;51.554;13.590;2023-04-27T07:41:02;100957.59;;;9.67;62.86
15263;BME280;7733;51.554;13.590;2023-04-27T07:43:30;100954.94;;;9.80;63.18
15263;BME280;7733;51.554;13.590;2023-04-27T07:45:57;100949.75;;;9.69;62.63
15263;BME280;7733;51.554;13.590;2023-04-27T07:48:23;100959.28;;;10.22;61.19
15263;BME280;7733;51.554;13.590;2023-04-27T07:50:49;100960.19;;;9.89;60.80
15263;BME280;7733;51.554;13.590;2023-04-27T07:53:16;100953.03;;;10.49;59.55
15263;BME280;7733;51.554;13.590;2023-04-27T07:55:41;100960.84;;;10.58;59.22
15263;BME280;7733;51.554;13.590;2023-04-27T07:58:10;100964.28;;;10.72;58.78
15263;BME280;7733;51.554;13.590;2023-04-27T08:00:36;100957.84;;;11.25;57.85
15263;BME280;7733;51.554;13.590;2023-04-27T08:03:02;100963.44;;;10.61;59.59
15263;BME280;7733;51.554;13.590;2023-04-27T08:05:28;100968.81;;;10.38;58.12
15263;BME280;7733;51.554;13.590;2023-04-27T08:07:54;100967.97;;;10.30;57.84
15263;BME280;7733;51.554;13.590;2023-04-27T08:10:20;100968.00;;;10.13;58.49
15263;BME280;7733;51.554;13.590;2023-04-27T08:12:46;100969.66;;;10.46;58.74
15263;BME280;7733;51.554;13.590;2023-04-27T08:15:12;100964.44;;;10.43;58.97
15263;BME280;7733;51.554;13.590;2023-04-27T08:17:37;100962.50;;;10.82;56.89
15263;BME280;7733;51.554;13.590;2023-04-27T08:20:07;100966.06;;;10.70;58.21
15263;BME280;7733;51.554;13.590;2023-04-27T08:22:38;100962.16;;;11.31;55.48
15263;BME280;7733;51.554;13.590;2023-04-27T08:25:06;100956.97;;;11.18;55.54
15263;BME280;7733;51.554;13.590;2023-04-27T08:27:35;100958.00;;;10.99;55.56
15263;BME280;7733;51.554;13.590;2023-04-27T08:30:01;100960.72;;;10.81;56.96
15263;BME280;7733;51.554;13.590;2023-04-27T08:32:27;100956.38;;;10.83;57.24
15263;BME280;7733;51.554;13.590;2023-04-27T08:34:53;100958.00;;;11.02;58.30
15263;BME280;7733;51.554;13.590;2023-04-27T08:37:19;100952.28;;;11.62;55.60
15263;BME280;7733;51.554;13.590;2023-04-27T08:39:46;100949.53;;;11.71;54.29
15263;BME280;7733;51.554;13.590;2023-04-27T08:42:13;100951.00;;;11.03;55.03
15263;BME280;7733;51.554;13.590;2023-04-27T08:44:43;100951.13;;;10.77;54.38
15263;BME280;7733;51.554;13.590;2023-04-27T08:47:09;100949.28;;;10.94;55.27
15263;BME280;7733;51.554;13.590;2023-04-27T08:49:36;100948.44;;;10.92;53.75
15263;BME280;7733;51.554;13.590;2023-04-27T08:52:14;100955.53;;;10.72;55.12
15263;BME280;7733;51.554;13.590;2023-04-27T08:54:40;100960.03;;;10.50;56.14
15263;BME280;7733;51.554;13.590;2023-04-27T08:57:13;100961.84;;;10.32;56.50
15263;BME280;7733;51.554;13.590;2023-04-27T08:59:40;100960.06;;;10.42;55.89
15263;BME280;7733;51.554;13.590;2023-04-27T09:02:17;100967.03;;;10.46;56.54
15263;BME280;7733;51.554;13.590;2023-04-27T09:04:43;100963.56;;;10.40;57.17
15263;BME280;7733;51.554;13.590;2023-04-27T09:07:13;100957.38;;;10.54;56.93
15263;BME280;7733;51.554;13.590;2023-04-27T09:09:40;100959.13;;;10.61;56.90
15263;BME280;7733;51.554;13.590;2023-04-27T09:12:20;100956.47;;;10.57;55.44
15263;BME280;7733;51.554;13.590;2023-04-27T09:15:00;100961.69;;;10.69;56.56
15263;BME280;7733;51.554;13.590;2023-04-27T09:17:29;100954.75;;;10.62;57.09
15263;BME280;7733;51.554;13.590;2023-04-27T09:20:07;100956.47;;;10.64;57.08
15263;BME280;7733;51.554;13.590;2023-04-27T09:22:45;100965.22;;;10.62;57.13
15263;BME280;7733;51.554;13.590;2023-04-27T09:25:28;100950.34;;;10.65;55.42
15263;BME280;7733;51.554;13.590;2023-04-27T09:27:57;100949.44;;;10.68;56.15
15263;BME280;7733;51.554;13.590;2023-04-27T09:30:27;100942.50;;;10.58;55.89
15263;BME280;7733;51.554;13.590;2023-04-27T09:32:59;100944.97;;;10.81;55.49
15263;BME280;7733;51.554;13.590;2023-04-27T09:35:31;100938.03;;;10.72;56.16
15263;BME280;7733;51.554;13.590;2023-04-27T09:37:58;100936.19;;;10.91;55.62
15263;BME280;7733;51.554;13.590;2023-04-27T09:40:26;100937.88;;;10.98;56.45
15263;BME280;7733;51.554;13.590;2023-04-27T09:42:56;100936.19;;;10.91;55.82
15263;BME280;7733;51.554;13.590;2023-04-27T09:45:25;100935.31;;;10.90;54.86
15263;BME280;7733;51.554;13.590;2023-04-27T09:47:51;100939.63;;;10.99;55.27
15263;BME280;7733;51.554;13.590;2023-04-27T09:50:17;100941.44;;;10.91;53.85
15263;BME280;7733;51.554;13.590;2023-04-27T09:52:45;100947.47;;;11.04;54.43
15263;BME280;7733;51.554;13.590;2023-04-27T09:55:39;100936.19;;;10.91;54.77
15263;BME280;7733;51.554;13.590;2023-04-27T09:58:46;100939.69;;;10.88;55.35
15263;BME280;7733;51.554;13.590;2023-04-27T10:07:03;100929.63;;;11.47;54.97
15263;BME280;7733;51.554;13.590;2023-04-27T10:09:46;100929.91;;;11.13;54.93
15263;BME280;7733;51.554;13.590;2023-04-27T10:12:27;100918.44;;;11.20;56.54
15263;BME280;7733;51.554;13.590;2023-04-27T10:14:59;100929.19;;;10.90;55.90
15263;BME280;7733;51.554;13.590;2023-04-27T10:19:56;100930.88;;;11.03;56.12
15263;BME280;7733;51.554;13.590;2023-04-27T10:22:23;100938.06;;;10.71;56.39
15263;BME280;7733;51.554;13.590;2023-04-27T10:24:50;100930.19;;;10.72;56.75
15263;BME280;7733;51.554;13.590;2023-04-27T10:27:18;100939.06;;;10.47;57.42
15263;BME280;7733;51.554;13.590;2023-04-27T10:29:47;100932.00;;;10.56;57.68
15263;BME280;7733;51.554;13.590;2023-04-27T10:32:24;100939.94;;;10.46;57.54
15263;BME280;7733;51.554;13.590;2023-04-27T10:35:05;100937.31;;;10.46;57.35
15263;BME280;7733;51.554;13.590;2023-04-27T10:37:41;100936.47;;;10.36;60.65
15263;BME280;7733;51.554;13.590;2023-04-27T10:40:10;100938.97;;;10.59;58.58
15263;BME280;7733;51.554;13.590;2023-04-27T10:42:40;100946.91;;;10.48;59.12
15263;BME280;7733;51.554;13.590;2023-04-27T10:45:06;100943.41;;;10.51;57.63
15263;BME280;7733;51.554;13.590;2023-04-27T10:48:00;100935.63;;;10.32;57.50
15263;BME280;7733;51.554;13.590;2023-04-27T10:50:26;100933.81;;;10.48;56.97
15263;BME280;7733;51.554;13.590;2023-04-27T10:52:52;100931.91;;;10.76;57.79
15263;BME280;7733;51.554;13.590;2023-04-27T10:55:21;100937.84;;;11.01;56.33
15263;BME280;7733;51.554;13.590;2023-04-27T10:57:52;100927.31;;;11.07;55.55
15263;BME280;7733;51.554;13.590;2023-04-27T11:00:40;100931.75;;;10.99;55.96
15263;BME280;7733;51.554;13.590;2023-04-27T11:03:13;100932.53;;;11.13;55.00
15263;BME280;7733;51.554;13.590;2023-04-27T11:05:45;100929.69;;;11.38;54.58
15263;BME280;7733;51.554;13.590;2023-04-27T11:08:16;100925.19;;;11.52;53.68
15263;BME280;7733;51.554;13.590;2023-04-27T11:10:48;100927.75;;;11.63;52.36
15263;BME280;7733;51.554;13.590;2023-04-27T11:13:18;100930.59;;;11.34;54.55
15263;BME280;7733;51.554;13.590;2023-04-27T11:15:50;100928.97;;;11.19;53.13
15263;BME280;7733;51.554;13.590;2023-04-27T11:18:19;100933.19;;;11.38;51.32
15263;BME280;7733;51.554;13.590;2023-04-27T11:20:49;100932.47;;;11.22;51.12
15263;BME280;7733;51.554;13.590;2023-04-27T11:23:27;100923.69;;;11.20;49.13
15263;BME280;7733;51.554;13.590;2023-04-27T11:25:54;100933.44;;;11.08;48.10
15263;BME280;7733;51.554;13.590;2023-04-27T11:28:22;100929.63;;;11.47;48.37
15263;BME280;7733;51.554;13.590;2023-04-27T11:30:58;100932.94;;;11.67;47.80
15263;BME280;7733;51.554;13.590;2023-04-27T11:33:26;100934.94;;;11.39;47.42
15263;BME280;7733;51.554;13.590;2023-04-27T11:35:52;100937.53;;;11.41;47.25
15263;BME280;7733;51.554;13.590;2023-04-27T11:38:19;100935.91;;;11.31;46.70
15263;BME280;7733;51.554;13.590;2023-04-27T11:41:04;100928.03;;;11.29;46.99
15263;BME280;7733;51.554;13.590;2023-04-27T11:43:30;100944.53;;;11.46;46.89
15263;BME280;7733;51.554;13.590;2023-04-27T11:45:56;100937.75;;;11.16;45.20
15263;BME280;7733;51.554;13.590;2023-04-27T11:48:24;100938.53;;;11.29;43.73
15263;BME280;7733;51.554;13.590;2023-04-27T11:50:51;100939.13;;;11.60;45.04
15263;BME280;7733;51.554;13.590;2023-04-27T11:53:29;100946.88;;;11.81;45.61
15263;BME280;7733;51.554;13.590;2023-04-27T11:56:02;100942.19;;;12.08;45.41
15263;BME280;7733;51.554;13.590;2023-04-27T11:58:37;100935.03;;;12.19;45.98
15263;BME280;7733;51.554;13.590;2023-04-27T12:01:06;100932.44;;;12.16;45.65
15263;BME280;7733;51.554;13.590;2023-04-27T12:03:32;100937.41;;;12.40;44.75
15263;BME280;7733;51.554;13.590;2023-04-27T12:05:58;100941.31;;;12.07;46.43
15263;BME280;7733;51.554;13.590;2023-04-27T12:08:24;100942.75;;;12.34;45.13
15263;BME280;7733;51.554;13.590;2023-04-27T12:10:50;100937.22;;;11.77;44.60
15263;BME280;7733;51.554;13.590;2023-04-27T12:13:16;100938.88;;;11.91;45.92
15263;BME280;7733;51.554;13.590;2023-04-27T12:15:42;100941.28;;;12.09;44.59
15263;BME280;7733;51.554;13.590;2023-04-27T12:18:09;100946.66;;;11.98;45.94
15263;BME280;7733;51.554;13.590;2023-04-27T12:20:35;100944.84;;;12.05;46.43
15263;BME280;7733;51.554;13.590;2023-04-27T12:23:01;100942.84;;;12.27;46.06
15263;BME280;7733;51.554;13.590;2023-04-27T12:25:27;100947.28;;;12.20;46.45
15263;BME280;7733;51.554;13.590;2023-04-27T12:27:53;100952.97;;;11.85;48.54
15263;BME280;7733;51.554;13.590;2023-04-27T12:30:19;100950.09;;;12.06;46.68
15263;BME280;7733;51.554;13.590;2023-04-27T12:32:46;100948.03;;;12.31;45.43
15263;BME280;7733;51.554;13.590;2023-04-27T12:35:11;100944.53;;;12.31;45.15
15263;BME280;7733;51.554;13.590;2023-04-27T12:37:37;100951.56;;;12.30;43.97
15263;BME280;7733;51.554;13.590;2023-04-27T12:40:04;100942.13;;;12.82;44.02
15263;BME280;7733;51.554;13.590;2023-04-27T12:42:34;100943.22;;;12.67;43.66
15263;BME280;7733;51.554;13.590;2023-04-27T12:45:00;100948.47;;;12.67;45.21
15263;BME280;7733;51.554;13.590;2023-04-27T12:47:26;100944.69;;;12.17;45.03
15263;BME280;7733;51.554;13.590;2023-04-27T12:49:52;100941.97;;;12.26;44.64
15263;BME280;7733;51.554;13.590;2023-04-27T12:52:18;100943.75;;;12.26;44.65
15263;BME280;7733;51.554;13.590;2023-04-27T12:54:44;100940.69;;;12.58;45.04
15263;BME280;7733;51.554;13.590;2023-04-27T12:57:11;100946.78;;;12.63;44.00
15263;BME280;7733;51.554;13.590;2023-04-27T12:59:37;100942.84;;;12.91;44.70
15263;BME280;7733;51.554;13.590;2023-04-27T13:02:03;100932.94;;;13.08;42.26
15263;BME280;7733;51.554;13.590;2023-04-27T13:04:30;100939.47;;;12.83;42.95